KHIE

Mount Washington Regional Airport

Whitefield, New Hampshire, USA
METAR KHIE 231052Z AUTO 00000KT 10SM SCT035 OVC060 01/00 A3010 RMK AO2 SLP205 T00110000
Observed Flight Rules
Oct-23 @ 10:52 UTC (56 minutes ago) Visual Flight Rules
Visibility Clouds
10 miles
  • Scattered at 3,500' AGL
  • Overcast at 6,000' AGL
Temperatures Readings
Current 1°C / 34°F
Dewpoint 0°C / 32°F
Humidity 93%
Altimeter 30.1" Hg
Pressure 1020.5 hPa
Elevation 318
METAR KHIE 231052Z AUTO 00000KT 10SM SCT035 OVC060 01/00 A3010 RMK AO2 SLP205 T00110000
Observed Flight Rules
Oct-23 @ 10:52 UTC
(56 minutes ago)
VFR
Clouds
  • Scattered at 3,500' AGL
  • Overcast at 6,000' AGL
Temperature Dewpoint
1°C / 34°F 0°C / 32°F
Humidity Altimeter Pressure
93% 30.1" Hg 1020.5 hPa